TIGER EHVK-EHVK

Flight info

Callsign TIGER
Flight time 0h 16m
Altitude 2000
Route VKL STAY1/0030 VKL
Aircraft F35/M-DILTUVY/C

Departure

Time 2026-04-25 18:03
Airport Volkel Air Base (EHVK)

Arrival

Time 2026-04-25 18:20
Airport Volkel Air Base (EHVK)
Time Latitude Longitude Altitude Speed Heading
2026-04-25 17:56 51.66332 5.71506 63 ft 0 kts 136°
2026-04-25 17:59 51.66317 5.71529 67 ft 8 kts 135°
2026-04-25 18:00 51.66325 5.71586 68 ft 4 kts 51°
2026-04-25 18:00 51.66383 5.71677 69 ft 22 kts 42°
2026-04-25 18:00 51.66451 5.71878 69 ft 19 kts 84°
2026-04-25 18:00 51.66454 5.72077 66 ft 17 kts 92°
2026-04-25 18:01 51.66480 5.72204 66 ft 6 kts 67°
2026-04-25 18:01 51.66482 5.72225 67 ft 0 kts 90°
2026-04-25 18:02 51.66460 5.72285 66 ft 20 kts 131°
2026-04-25 18:02 51.66368 5.72425 68 ft 17 kts 216°
2026-04-25 18:03 51.66258 5.72164 66 ft 80 kts 238°
2026-04-25 18:03 51.65653 5.70603 211 ft 224 kts 239°
2026-04-25 18:03 51.64550 5.67896 791 ft 353 kts 220°
2026-04-25 18:03 51.63569 5.69482 1013 ft 299 kts 64°
2026-04-25 18:04 51.64560 5.73088 1164 ft 398 kts 65°
2026-04-25 18:04 51.65578 5.76901 1232 ft 349 kts 65°
2026-04-25 18:04 51.66990 5.79098 997 ft 257 kts 340°
2026-04-25 18:04 51.68238 5.77736 953 ft 189 kts 303°
2026-04-25 18:05 51.68043 5.76066 738 ft 164 kts 230°
2026-04-25 18:05 51.67241 5.74708 454 ft 157 kts 237°
2026-04-25 18:05 51.66742 5.73421 223 ft 129 kts 240°
2026-04-25 18:05 51.66236 5.72114 75 ft 138 kts 239°
2026-04-25 18:06 51.65794 5.70961 67 ft 161 kts 238°
2026-04-25 18:06 51.64941 5.68902 730 ft 244 kts 202°
2026-04-25 18:06 51.63875 5.70704 893 ft 314 kts 84°
2026-04-25 18:06 51.64806 5.74292 951 ft 369 kts 61°
2026-04-25 18:07 51.65926 5.77870 1109 ft 343 kts 60°
2026-04-25 18:07 51.66964 5.81203 1456 ft 322 kts 61°
2026-04-25 18:07 51.68011 5.84546 1491 ft 353 kts 60°
2026-04-25 18:07 51.69858 5.85551 1611 ft 347 kts 308°
2026-04-25 18:08 51.70130 5.81591 1725 ft 410 kts 239°
2026-04-25 18:08 51.68526 5.78015 1571 ft 375 kts 239°
2026-04-25 18:08 51.67620 5.75674 1542 ft 355 kts 240°
2026-04-25 18:08 51.66314 5.72265 1555 ft 358 kts 239°
2026-04-25 18:09 51.64938 5.72853 1003 ft 225 kts 89°
2026-04-25 18:09 51.65348 5.75004 840 ft 196 kts 63°
2026-04-25 18:09 51.66276 5.76010 692 ft 166 kts 349°
2026-04-25 18:09 51.66943 5.75432 573 ft 163 kts 310°
2026-04-25 18:10 51.66928 5.73873 283 ft 143 kts 242°
2026-04-25 18:10 51.66241 5.72124 73 ft 133 kts 242°
2026-04-25 18:10 51.65833 5.71071 66 ft 109 kts 237°
2026-04-25 18:10 51.65149 5.69330 399 ft 241 kts 240°
2026-04-25 18:11 51.65611 5.68065 747 ft 244 kts 28°
2026-04-25 18:11 51.67705 5.69939 1162 ft 408 kts 27°
2026-04-25 18:11 51.69877 5.72192 1685 ft 341 kts 33°
2026-04-25 18:11 51.71710 5.74225 1854 ft 301 kts 33°
2026-04-25 18:12 51.73332 5.76044 1921 ft 267 kts 33°
2026-04-25 18:12 51.74712 5.77837 1926 ft 255 kts 49°
2026-04-25 18:12 51.75661 5.80245 1938 ft 254 kts 59°
2026-04-25 18:12 51.76474 5.82791 1968 ft 254 kts 61°
2026-04-25 18:13 51.77238 5.85384 1960 ft 255 kts 62°
2026-04-25 18:13 51.77979 5.87986 1963 ft 256 kts 62°
2026-04-25 18:13 51.78699 5.90592 1960 ft 255 kts 63°
2026-04-25 18:14 51.80134 5.95799 1961 ft 255 kts 63°
2026-04-25 18:14 51.80861 5.98445 1977 ft 256 kts 64°
2026-04-25 18:14 51.81110 6.01200 1931 ft 240 kts 99°
2026-04-25 18:14 51.80312 6.03474 1926 ft 241 kts 140°
2026-04-25 18:15 51.78798 6.04494 1936 ft 239 kts 180°
2026-04-25 18:15 51.77245 6.03808 1950 ft 232 kts 221°
2026-04-25 18:15 51.76262 6.01807 1986 ft 226 kts 253°
2026-04-25 18:15 51.75768 5.99411 1978 ft 223 kts 255°
2026-04-25 18:16 51.75333 5.97010 1955 ft 223 kts 261°
2026-04-25 18:16 51.74858 5.94627 1964 ft 225 kts 250°
2026-04-25 18:16 51.73219 5.90187 1957 ft 226 kts 242°
2026-04-25 18:17 51.72456 5.88225 1952 ft 198 kts 242°
2026-04-25 18:17 51.71749 5.86414 1889 ft 190 kts 243°
2026-04-25 18:17 51.71075 5.84650 1778 ft 186 kts 243°
2026-04-25 18:17 51.70406 5.82903 1566 ft 183 kts 242°
2026-04-25 18:18 51.69728 5.81131 1239 ft 183 kts 242°
2026-04-25 18:18 51.69038 5.79361 1027 ft 174 kts 242°
2026-04-25 18:18 51.68435 5.77810 843 ft 174 kts 242°
2026-04-25 18:18 51.67770 5.76056 639 ft 170 kts 241°
2026-04-25 18:19 51.67193 5.74580 407 ft 152 kts 241°
2026-04-25 18:19 51.66644 5.73157 206 ft 146 kts 240°
2026-04-25 18:19 51.66128 5.71835 64 ft 120 kts 242°
2026-04-25 18:19 51.65774 5.70918 63 ft 81 kts 238°
2026-04-25 18:20 51.65515 5.70252 70 ft 59 kts 237°
2026-04-25 18:20 51.65330 5.69771 69 ft 47 kts 238°
2026-04-25 18:20 51.65171 5.69357 67 ft 38 kts 244°
2026-04-25 18:20 51.65238 5.69215 67 ft 14 kts 337°